Time;durP1;ratioP1;P1;durP2;ratioP2;P2;SDS_P1;SDS_P2;PMS_P1;PMS_P2;Temp;Humidity;BMP_temperature;BMP_pressure;BME280_temperature;BME280_humidity;BME280_pressure;Samples;Min_cycle;Max_cycle;Signal;HPM_P1;HPM_P2
2022/08/05 00:04:09;;;;;;;;;;;;;;;26.28;38.48;100293.69;20573401;28;97756;-74
2022/08/05 00:14:10;;;;;;;;;;;;;;;26.15;38.71;100296.72;20565478;28;100184;-73
2022/08/05 00:24:10;;;;;;;;;;;;;;;26.18;38.95;100296.44;20566840;28;101082;-74
2022/08/05 00:34:10;;;;;;;;;;;;;;;26.05;38.71;100291.47;20570821;28;98644;-74
2022/08/05 00:44:11;;;;;;;;;;;;;;;25.97;39.19;100288.75;20562464;28;98249;-73
2022/08/05 00:54:12;;;;;;;;;;;;;;;25.87;39.66;100291.47;20570672;28;98593;-74
2022/08/05 01:04:13;;;;;;;;;;;;;;;25.93;39.38;100287.38;20572137;28;97764;-74
2022/08/05 01:14:16;;;;;;;;;;;;;;;25.78;39.72;100280.94;20562640;28;99412;-73
2022/08/05 01:24:32;;;;;;;;;;;;;;;25.66;39.83;100275.88;20573641;28;100603;-74
2022/08/05 01:34:35;;;;;;;;;;;;;;;25.53;40.33;100278.88;20567615;28;98294;-74
2022/08/05 01:44:36;;;;;;;;;;;;;;;25.36;41.00;100283.16;20566535;28;97486;-74
2022/08/05 01:54:48;;;;;;;;;;;;;;;25.21;41.67;100284.66;20563749;28;98121;-74
2022/08/05 02:04:49;;;;;;;;;;;;;;;25.15;42.11;100294.03;20566285;28;98820;-73
2022/08/05 02:14:52;;;;;;;;;;;;;;;25.03;42.76;100293.38;20563081;28;98448;-73
2022/08/05 02:24:55;;;;;;;;;;;;;;;24.94;42.92;100295.09;20564426;28;98723;-73
2022/08/05 02:34:58;;;;;;;;;;;;;;;24.89;43.31;100286.75;20563239;28;98133;-73
2022/08/05 02:44:59;;;;;;;;;;;;;;;24.84;43.67;100283.72;20578878;28;99096;-74
2022/08/05 02:55:00;;;;;;;;;;;;;;;24.86;43.51;100289.69;20572162;28;99154;-74
2022/08/05 03:05:01;;;;;;;;;;;;;;;24.89;43.81;100281.47;20576208;28;101071;-74
2022/08/05 03:15:03;;;;;;;;;;;;;;;24.87;43.70;100267.53;20579095;28;104261;-74
2022/08/05 03:25:05;;;;;;;;;;;;;;;24.85;43.95;100268.66;20572939;28;97661;-74
2022/08/05 03:35:06;;;;;;;;;;;;;;;24.74;44.43;100272.31;20553148;28;97977;-73
2022/08/05 03:45:07;;;;;;;;;;;;;;;24.68;44.73;100272.91;20558634;28;100861;-74
2022/08/05 03:55:09;;;;;;;;;;;;;;;24.84;44.47;100266.97;20572720;28;97875;-74
2022/08/05 04:05:11;;;;;;;;;;;;;;;24.62;45.63;100271.66;20575821;28;98632;-73
2022/08/05 04:15:11;;;;;;;;;;;;;;;24.52;46.42;100284.06;20563493;28;100275;-76
2022/08/05 04:25:12;;;;;;;;;;;;;;;24.40;46.94;100273.66;20573072;28;97445;-75
2022/08/05 04:35:12;;;;;;;;;;;;;;;24.28;47.13;100278.25;20568733;28;98941;-74
2022/08/05 04:45:12;;;;;;;;;;;;;;;24.24;46.99;100282.19;20580312;28;98517;-74
2022/08/05 04:55:13;;;;;;;;;;;;;;;24.27;46.53;100275.78;20579531;28;101222;-75
2022/08/05 05:05:14;;;;;;;;;;;;;;;24.39;45.46;100274.63;20578200;28;99141;-78
2022/08/05 05:15:14;;;;;;;;;;;;;;;24.50;44.54;100272.78;20604566;28;101879;-79
2022/08/05 05:25:15;;;;;;;;;;;;;;;24.61;43.26;100270.78;20603301;28;97692;-78
2022/08/05 05:35:18;;;;;;;;;;;;;;;24.67;42.88;100263.28;20582699;28;97794;-78
2022/08/05 05:45:19;;;;;;;;;;;;;;;24.81;42.14;100260.16;20559096;28;98437;-75
2022/08/05 05:55:19;;;;;;;;;;;;;;;24.89;41.44;100256.78;20555624;28;98068;-75
2022/08/05 06:05:20;;;;;;;;;;;;;;;24.98;41.02;100253.25;20560415;28;100621;-76
2022/08/05 06:15:21;;;;;;;;;;;;;;;25.09;40.35;100262.81;20567269;28;97791;-75
2022/08/05 06:25:21;;;;;;;;;;;;;;;25.19;39.41;100257.47;20581628;28;100980;-74
2022/08/05 06:35:23;;;;;;;;;;;;;;;25.30;38.08;100254.59;20578941;28;100731;-74
2022/08/05 06:45:23;;;;;;;;;;;;;;;25.44;37.92;100252.44;20572096;28;98524;-74
2022/08/05 06:55:23;;;;;;;;;;;;;;;25.55;37.58;100252.25;20565383;28;98370;-73
2022/08/05 07:25:05;;;;;;;;;;;;;;;26.01;39.74;100246.81;20561712;27;98106;-76
2022/08/05 07:35:10;;;;;;;;;;;;;;;26.18;37.70;100234.53;20559847;27;98281;-74
2022/08/05 07:45:10;;;;;;;;;;;;;;;26.26;37.54;100239.09;20568977;27;98287;-71
2022/08/05 07:55:10;;;;;;;;;;;;;;;26.34;36.08;100231.16;20561357;27;97618;-72
2022/08/05 08:05:10;;;;;;;;;;;;;;;26.42;36.39;100230.38;20558454;27;100488;-74
2022/08/05 08:15:12;;;;;;;;;;;;;;;26.51;35.73;100237.38;20542177;28;98034;-80
2022/08/05 08:25:12;;;;;;;;;;;;;;;26.56;36.29;100234.25;20508841;28;99208;-73
2022/08/05 08:35:12;;;;;;;;;;;;;;;26.63;36.96;100227.31;20503980;28;100154;-72
2022/08/05 08:45:19;;;;;;;;;;;;;;;26.74;37.54;100224.38;20500991;28;96993;-74
2022/08/05 08:55:20;;;;;;;;;;;;;;;26.82;35.90;100215.66;20508369;28;97842;-75
2022/08/05 09:05:20;;;;;;;;;;;;;;;26.91;35.36;100212.03;20501197;28;97673;-75
2022/08/05 09:15:20;;;;;;;;;;;;;;;27.04;34.69;100200.09;20492554;28;97514;-75
2022/08/05 09:25:21;;;;;;;;;;;;;;;27.07;37.92;100194.47;20452258;28;99423;-81
2022/08/05 09:35:21;;;;;;;;;;;;;;;27.07;38.04;100178.53;20469702;28;97899;-77
2022/08/05 09:45:32;;;;;;;;;;;;;;;27.10;39.26;100175.53;20492697;28;97786;-82
2022/08/05 09:55:37;;;;;;;;;;;;;;;27.10;39.80;100165.75;20470194;28;98602;-80
2022/08/05 10:05:37;;;;;;;;;;;;;;;27.14;39.14;100153.78;20502744;28;97301;-76
2022/08/05 10:15:42;;;;;;;;;;;;;;;27.16;39.29;100153.63;20492055;28;98945;-80
2022/08/05 10:25:43;;;;;;;;;;;;;;;27.19;40.30;100147.16;20475488;28;99961;-78
2022/08/05 10:35:43;;;;;;;;;;;;;;;27.22;40.21;100133.53;20486865;28;98153;-79
2022/08/05 10:45:54;;;;;;;;;;;;;;;27.26;40.09;100130.38;20476613;28;98074;-79
2022/08/05 10:56:13;;;;;;;;;;;;;;;27.33;40.39;100125.22;20475027;28;100768;-79
2022/08/05 11:06:15;;;;;;;;;;;;;;;27.40;40.13;100110.25;20483430;28;99004;-79
2022/08/05 11:16:22;;;;;;;;;;;;;;;27.46;40.52;100109.63;20486926;28;98409;-79
2022/08/05 11:26:23;;;;;;;;;;;;;;;27.54;40.55;100102.63;20488447;28;98232;-81
2022/08/05 11:36:40;;;;;;;;;;;;;;;27.59;40.53;100093.16;20503767;28;98129;-79
2022/08/05 11:46:42;;;;;;;;;;;;;;;27.68;40.57;100087.84;20464351;28;98724;-76
2022/08/05 11:56:43;;;;;;;;;;;;;;;27.76;41.28;100096.63;20467761;28;98506;-76
2022/08/05 12:06:44;;;;;;;;;;;;;;;27.89;42.00;100085.47;20474074;28;98605;-74
2022/08/05 12:16:50;;;;;;;;;;;;;;;28.08;44.26;100080.78;20479569;27;98585;-82
2022/08/05 12:26:51;;;;;;;;;;;;;;;28.21;45.93;100070.41;20479264;27;98422;-74
2022/08/05 12:36:52;;;;;;;;;;;;;;;28.32;46.62;100066.53;20471203;28;101834;-73
2022/08/05 12:46:53;;;;;;;;;;;;;;;28.39;46.49;100062.16;20476858;28;102283;-72
2022/08/05 12:56:55;;;;;;;;;;;;;;;28.47;46.04;100050.63;20473786;28;99285;-72
2022/08/05 13:06:56;;;;;;;;;;;;;;;28.52;45.87;100045.59;20475851;28;98336;-76
2022/08/05 13:16:57;;;;;;;;;;;;;;;28.58;45.40;100028.09;20507813;28;101381;-74
2022/08/05 13:26:57;;;;;;;;;;;;;;;28.63;45.06;100023.06;20487260;28;98202;-77
2022/08/05 13:36:59;;;;;;;;;;;;;;;28.68;45.01;100012.72;20484041;28;98605;-76
2022/08/05 13:46:59;;;;;;;;;;;;;;;28.73;44.88;100005.03;20478110;28;99578;-77
2022/08/05 13:56:59;;;;;;;;;;;;;;;28.78;44.79;99991.16;20491528;28;101056;-76
2022/08/05 14:06:59;;;;;;;;;;;;;;;28.84;45.45;99976.31;20480198;28;98524;-78
2022/08/05 14:17:00;;;;;;;;;;;;;;;28.90;45.34;99979.06;20477266;28;99230;-80
2022/08/05 14:27:01;;;;;;;;;;;;;;;28.97;45.40;99965.84;20489235;28;99585;-80
2022/08/05 14:37:02;;;;;;;;;;;;;;;28.99;45.38;99958.53;20490704;28;98077;-79
2022/08/05 14:47:03;;;;;;;;;;;;;;;29.02;44.92;99955.47;20489252;28;99443;-81
2022/08/05 14:57:03;;;;;;;;;;;;;;;29.05;45.25;99944.47;20481858;28;98018;-78
2022/08/05 15:07:03;;;;;;;;;;;;;;;29.08;46.15;99936.09;20472016;28;98970;-79
2022/08/05 15:17:04;;;;;;;;;;;;;;;29.13;44.64;99937.41;20497754;28;98475;-80
2022/08/05 15:27:04;;;;;;;;;;;;;;;29.11;44.55;99932.22;20503519;28;99700;-80
2022/08/05 15:37:04;;;;;;;;;;;;;;;29.12;44.24;99917.88;20514900;28;98582;-84
2022/08/05 15:47:04;;;;;;;;;;;;;;;29.13;44.11;99911.56;20512911;28;97763;-81
2022/08/05 15:57:05;;;;;;;;;;;;;;;29.13;43.73;99908.88;20510230;28;98142;-81
2022/08/05 16:07:05;;;;;;;;;;;;;;;29.13;43.62;99905.41;20507613;28;100657;-81
2022/08/05 16:17:06;;;;;;;;;;;;;;;29.12;44.16;99901.09;20468498;28;98672;-76
2022/08/05 16:27:07;;;;;;;;;;;;;;;29.11;45.50;99902.91;20472304;28;100231;-79
2022/08/05 16:37:07;;;;;;;;;;;;;;;29.10;46.08;99903.94;20499139;28;101254;-75
2022/08/05 16:47:08;;;;;;;;;;;;;;;29.10;46.29;99900.44;20488836;28;98738;-75
2022/08/05 16:57:08;;;;;;;;;;;;;;;29.10;45.71;99901.28;20491125;28;98346;-73
2022/08/05 17:07:08;;;;;;;;;;;;;;;29.09;45.83;99902.28;20484340;28;98621;-75
2022/08/05 17:17:10;;;;;;;;;;;;;;;29.09;45.58;99902.28;20491179;28;101689;-76
2022/08/05 17:27:10;;;;;;;;;;;;;;;29.10;45.77;99909.28;20492742;28;98051;-80
2022/08/05 17:37:10;;;;;;;;;;;;;;;29.11;41.69;99910.91;20475815;28;98354;-80
2022/08/05 17:47:13;;;;;;;;;;;;;;;29.12;39.86;99909.06;20492980;28;97955;-81
2022/08/05 17:57:14;;;;;;;;;;;;;;;29.07;38.94;99910.44;20469545;28;98176;-79
2022/08/05 18:07:14;;;;;;;;;;;;;;;29.07;38.73;99909.63;20481075;28;99022;-79
2022/08/05 18:17:14;;;;;;;;;;;;;;;29.06;39.75;99914.13;20477118;28;98249;-74
2022/08/05 18:27:15;;;;;;;;;;;;;;;29.04;39.76;99904.63;20482387;28;101956;-78
2022/08/05 18:37:15;;;;;;;;;;;;;;;29.01;39.16;99911.16;20492069;28;98017;-76
2022/08/05 18:47:15;;;;;;;;;;;;;;;28.96;38.53;99918.88;20506743;28;100414;-76
2022/08/05 18:57:18;;;;;;;;;;;;;;;28.96;39.52;99928.72;20508086;28;97446;-76
2022/08/05 19:07:18;;;;;;;;;;;;;;;28.91;39.34;99935.41;20495525;28;99190;-75
2022/08/05 19:17:19;;;;;;;;;;;;;;;28.88;37.64;99933.13;20502544;28;99432;-76
2022/08/05 19:27:19;;;;;;;;;;;;;;;28.83;37.03;99935.53;20516639;28;98625;-76
2022/08/05 19:37:19;;;;;;;;;;;;;;;28.75;36.60;99941.72;20474926;28;98865;-72
2022/08/05 19:47:20;;;;;;;;;;;;;;;28.70;36.63;99941.44;20485094;28;101535;-75
2022/08/05 19:57:21;;;;;;;;;;;;;;;28.61;36.10;99929.16;20491824;28;99354;-74
2022/08/05 20:07:22;;;;;;;;;;;;;;;28.50;36.50;99948.25;20490365;28;97585;-75
2022/08/05 20:17:22;;;;;;;;;;;;;;;28.47;37.04;99952.09;20502958;28;100895;-75
2022/08/05 20:27:25;;;;;;;;;;;;;;;28.40;36.90;99959.13;20487798;28;98393;-80
2022/08/05 20:37:25;;;;;;;;;;;;;;;28.27;36.12;99971.19;20510904;28;98578;-80
2022/08/05 20:47:26;;;;;;;;;;;;;;;28.32;36.85;99964.50;20511926;28;100365;-77
2022/08/05 20:57:26;;;;;;;;;;;;;;;28.27;37.30;99971.19;20502679;28;101480;-79
2022/08/05 21:07:27;;;;;;;;;;;;;;;28.22;36.88;99973.56;20511524;28;97918;-79
2022/08/05 21:17:27;;;;;;;;;;;;;;;28.09;37.09;99979.44;20502692;28;98028;-80
2022/08/05 21:27:27;;;;;;;;;;;;;;;28.05;37.07;99980.81;20504024;28;100534;-80
2022/08/05 21:37:29;;;;;;;;;;;;;;;28.03;37.06;99987.28;20489146;28;99626;-80
2022/08/05 21:47:29;;;;;;;;;;;;;;;27.96;37.78;99982.66;20503751;28;99147;-81
2022/08/05 21:57:30;;;;;;;;;;;;;;;27.83;38.15;100000.16;20496620;28;100607;-80
2022/08/05 22:07:30;;;;;;;;;;;;;;;27.80;38.39;99998.69;20495913;28;97798;-79
2022/08/05 22:17:30;;;;;;;;;;;;;;;27.78;38.74;100004.19;20496447;28;99419;-79
2022/08/05 22:27:45;;;;;;;;;;;;;;;27.74;39.32;100002.84;20494508;28;98500;-80
2022/08/05 22:37:45;;;;;;;;;;;;;;;27.70;39.64;100003.38;20446385;28;100159;-80
2022/08/05 22:47:46;;;;;;;;;;;;;;;27.55;39.90;99998.78;20486112;28;97669;-81
2022/08/05 22:57:47;;;;;;;;;;;;;;;27.38;40.78;99994.44;20492849;28;98538;-79
2022/08/05 23:07:48;;;;;;;;;;;;;;;27.35;40.80;100000.13;20496969;28;98953;-79
2022/08/05 23:17:48;;;;;;;;;;;;;;;27.16;41.45;99994.16;20493308;28;100099;-78
2022/08/05 23:27:49;;;;;;;;;;;;;;;27.07;41.50;99993.31;20497869;28;101714;-79
2022/08/05 23:37:49;;;;;;;;;;;;;;;27.02;41.81;99989.53;20500439;28;98578;-80
2022/08/05 23:47:49;;;;;;;;;;;;;;;26.98;42.03;99992.50;20503721;27;97761;-80
2022/08/05 23:57:49;;;;;;;;;;;;;;;26.97;42.03;99996.16;20447727;28;98619;-79
